West Camp, New York
Current Conditions -  °F | °C
As of 6:53 AM on Saturday 01 Nov 2014 (Local Time) from KPOU Reporting Station
Overcast Overcast  
Wind Chill:   Ceiling: 9000
Heat Index:   Visibility: 10mi
Dew Point:   Wind: 6mph
Humidity: 82%   Direction: 10°N
Pressure: 29.88"   Gusts: NA
Location:  42.12°N, 73.94°W
Report Text: KPOU 011053Z 01005KT 10SM SCT050 OVC090 07/04 A2988 RMK AO2 RAE43 SLP117 P0004 T00670039
Loading
Personal Weather Stations






























Interactive Weather Map
Tropical Storm Tracking
New forecast layout! Learn more

10-Day Weather Forecast

Advertisements
Track Severe Weather on mobile